sensor_id;sensor_type;location;lat;lon;timestamp;temperature;humidity
20376;DHT22;10347;51.828;6.466;2023-12-14T00:00:20;9.20;99.90
20376;DHT22;10347;51.828;6.466;2023-12-14T00:02:46;9.20;99.90
20376;DHT22;10347;51.828;6.466;2023-12-14T00:05:11;9.20;99.90
20376;DHT22;10347;51.828;6.466;2023-12-14T00:07:37;9.20;99.90
20376;DHT22;10347;51.828;6.466;2023-12-14T00:10:02;9.20;99.90
20376;DHT22;10347;51.828;6.466;2023-12-14T00:12:30;9.20;99.90
20376;DHT22;10347;51.828;6.466;2023-12-14T00:14:56;9.10;99.90
20376;DHT22;10347;51.828;6.466;2023-12-14T00:17:21;9.10;99.90
20376;DHT22;10347;51.828;6.466;2023-12-14T00:19:47;9.10;99.90
20376;DHT22;10347;51.828;6.466;2023-12-14T00:22:12;9.10;99.90
20376;DHT22;10347;51.828;6.466;2023-12-14T00:24:38;9.10;99.90
20376;DHT22;10347;51.828;6.466;2023-12-14T00:27:04;9.10;99.90
20376;DHT22;10347;51.828;6.466;2023-12-14T00:29:29;9.00;99.90
20376;DHT22;10347;51.828;6.466;2023-12-14T00:31:55;9.10;99.90
20376;DHT22;10347;51.828;6.466;2023-12-14T00:34:20;9.10;99.90
20376;DHT22;10347;51.828;6.466;2023-12-14T00:36:46;9.10;99.90
20376;DHT22;10347;51.828;6.466;2023-12-14T00:39:11;9.00;99.90
20376;DHT22;10347;51.828;6.466;2023-12-14T00:41:37;9.00;99.90
20376;DHT22;10347;51.828;6.466;2023-12-14T00:44:03;8.90;99.90
20376;DHT22;10347;51.828;6.466;2023-12-14T00:46:28;8.90;99.90
20376;DHT22;10347;51.828;6.466;2023-12-14T00:48:54;8.90;99.90
20376;DHT22;10347;51.828;6.466;2023-12-14T00:51:19;8.90;99.90
20376;DHT22;10347;51.828;6.466;2023-12-14T00:53:45;8.90;99.90
20376;DHT22;10347;51.828;6.466;2023-12-14T00:56:10;8.90;99.90
20376;DHT22;10347;51.828;6.466;2023-12-14T00:58:36;8.90;99.90
20376;DHT22;10347;51.828;6.466;2023-12-14T01:01:02;8.90;99.90
20376;DHT22;10347;51.828;6.466;2023-12-14T01:03:27;8.90;99.90
20376;DHT22;10347;51.828;6.466;2023-12-14T01:05:53;8.90;99.90
20376;DHT22;10347;51.828;6.466;2023-12-14T01:08:18;8.90;99.90
20376;DHT22;10347;51.828;6.466;2023-12-14T01:10:44;8.90;99.90
20376;DHT22;10347;51.828;6.466;2023-12-14T01:13:09;8.90;99.90
20376;DHT22;10347;51.828;6.466;2023-12-14T01:15:35;8.90;99.90
20376;DHT22;10347;51.828;6.466;2023-12-14T01:18:01;8.90;99.90
20376;DHT22;10347;51.828;6.466;2023-12-14T01:20:26;8.90;99.90
20376;DHT22;10347;51.828;6.466;2023-12-14T01:22:52;8.80;99.90
20376;DHT22;10347;51.828;6.466;2023-12-14T01:25:18;8.80;99.90
20376;DHT22;10347;51.828;6.466;2023-12-14T01:27:43;8.80;99.90
20376;DHT22;10347;51.828;6.466;2023-12-14T01:30:09;8.80;99.90
20376;DHT22;10347;51.828;6.466;2023-12-14T01:32:35;8.80;99.90
20376;DHT22;10347;51.828;6.466;2023-12-14T01:35:00;8.80;99.90
20376;DHT22;10347;51.828;6.466;2023-12-14T01:37:26;8.70;99.90
20376;DHT22;10347;51.828;6.466;2023-12-14T01:39:51;8.70;99.90
20376;DHT22;10347;51.828;6.466;2023-12-14T01:42:17;8.70;99.90
20376;DHT22;10347;51.828;6.466;2023-12-14T01:44:42;8.70;99.90
20376;DHT22;10347;51.828;6.466;2023-12-14T01:47:08;8.70;99.90
20376;DHT22;10347;51.828;6.466;2023-12-14T01:49:34;8.70;99.90
20376;DHT22;10347;51.828;6.466;2023-12-14T01:51:59;8.70;99.90
20376;DHT22;10347;51.828;6.466;2023-12-14T01:54:25;8.70;99.90
20376;DHT22;10347;51.828;6.466;2023-12-14T01:56:50;8.60;99.90
20376;DHT22;10347;51.828;6.466;2023-12-14T01:59:16;8.60;99.90
20376;DHT22;10347;51.828;6.466;2023-12-14T02:01:43;8.60;99.90
20376;DHT22;10347;51.828;6.466;2023-12-14T02:04:10;8.60;99.90
20376;DHT22;10347;51.828;6.466;2023-12-14T02:06:36;8.60;99.90
20376;DHT22;10347;51.828;6.466;2023-12-14T02:09:02;8.60;99.90
20376;DHT22;10347;51.828;6.466;2023-12-14T02:11:28;8.60;99.90
20376;DHT22;10347;51.828;6.466;2023-12-14T02:13:53;8.60;99.90
20376;DHT22;10347;51.828;6.466;2023-12-14T02:16:19;8.60;99.90
20376;DHT22;10347;51.828;6.466;2023-12-14T02:18:45;8.50;99.90
20376;DHT22;10347;51.828;6.466;2023-12-14T02:21:11;8.50;99.90
20376;DHT22;10347;51.828;6.466;2023-12-14T02:23:46;8.50;99.90
20376;DHT22;10347;51.828;6.466;2023-12-14T02:26:12;8.50;99.90
20376;DHT22;10347;51.828;6.466;2023-12-14T02:28:38;8.50;99.90
20376;DHT22;10347;51.828;6.466;2023-12-14T02:31:04;8.50;99.90
20376;DHT22;10347;51.828;6.466;2023-12-14T02:33:29;8.50;99.90
20376;DHT22;10347;51.828;6.466;2023-12-14T02:35:55;8.50;99.90
20376;DHT22;10347;51.828;6.466;2023-12-14T02:38:20;8.50;99.90
20376;DHT22;10347;51.828;6.466;2023-12-14T02:40:46;8.50;99.90
20376;DHT22;10347;51.828;6.466;2023-12-14T02:43:13;8.40;99.90
20376;DHT22;10347;51.828;6.466;2023-12-14T02:45:38;8.40;99.90
20376;DHT22;10347;51.828;6.466;2023-12-14T02:48:04;8.40;99.90
20376;DHT22;10347;51.828;6.466;2023-12-14T02:50:30;8.40;99.90
20376;DHT22;10347;51.828;6.466;2023-12-14T02:52:55;8.40;99.90
20376;DHT22;10347;51.828;6.466;2023-12-14T02:55:21;8.30;99.90
20376;DHT22;10347;51.828;6.466;2023-12-14T02:57:46;8.40;99.90
20376;DHT22;10347;51.828;6.466;2023-12-14T03:00:12;8.40;99.90
20376;DHT22;10347;51.828;6.466;2023-12-14T03:02:38;8.40;99.90
20376;DHT22;10347;51.828;6.466;2023-12-14T03:05:04;8.40;99.90
20376;DHT22;10347;51.828;6.466;2023-12-14T03:07:29;8.40;99.90
20376;DHT22;10347;51.828;6.466;2023-12-14T03:09:55;8.30;99.90
20376;DHT22;10347;51.828;6.466;2023-12-14T03:12:20;8.30;99.90
20376;DHT22;10347;51.828;6.466;2023-12-14T03:14:46;8.30;99.90
20376;DHT22;10347;51.828;6.466;2023-12-14T03:17:11;8.30;99.90
20376;DHT22;10347;51.828;6.466;2023-12-14T03:19:41;8.20;99.90
20376;DHT22;10347;51.828;6.466;2023-12-14T03:22:07;8.20;99.90
20376;DHT22;10347;51.828;6.466;2023-12-14T03:24:33;8.30;99.90
20376;DHT22;10347;51.828;6.466;2023-12-14T03:26:59;8.20;99.90
20376;DHT22;10347;51.828;6.466;2023-12-14T03:29:24;8.20;99.90
20376;DHT22;10347;51.828;6.466;2023-12-14T03:31:50;8.20;99.90
20376;DHT22;10347;51.828;6.466;2023-12-14T03:34:17;8.20;99.90
20376;DHT22;10347;51.828;6.466;2023-12-14T03:36:43;8.20;99.90
20376;DHT22;10347;51.828;6.466;2023-12-14T03:39:08;8.20;99.90
20376;DHT22;10347;51.828;6.466;2023-12-14T03:41:34;8.20;99.90
20376;DHT22;10347;51.828;6.466;2023-12-14T03:43:59;8.20;99.90
20376;DHT22;10347;51.828;6.466;2023-12-14T03:46:25;8.20;99.90
20376;DHT22;10347;51.828;6.466;2023-12-14T03:48:50;8.20;99.90
20376;DHT22;10347;51.828;6.466;2023-12-14T03:51:19;8.20;99.90
20376;DHT22;10347;51.828;6.466;2023-12-14T03:53:45;8.20;99.90
20376;DHT22;10347;51.828;6.466;2023-12-14T03:56:11;8.20;99.90
20376;DHT22;10347;51.828;6.466;2023-12-14T03:58:36;8.20;99.90
20376;DHT22;10347;51.828;6.466;2023-12-14T04:01:02;8.10;99.90
20376;DHT22;10347;51.828;6.466;2023-12-14T04:03:27;8.20;99.90
20376;DHT22;10347;51.828;6.466;2023-12-14T04:05:53;8.20;99.90
20376;DHT22;10347;51.828;6.466;2023-12-14T04:08:18;8.20;99.90
20376;DHT22;10347;51.828;6.466;2023-12-14T04:10:44;8.20;99.90
20376;DHT22;10347;51.828;6.466;2023-12-14T04:13:09;8.20;99.90
20376;DHT22;10347;51.828;6.466;2023-12-14T04:15:35;8.20;99.90
20376;DHT22;10347;51.828;6.466;2023-12-14T04:18:00;8.20;99.90
20376;DHT22;10347;51.828;6.466;2023-12-14T04:20:26;8.20;99.90
20376;DHT22;10347;51.828;6.466;2023-12-14T04:22:51;8.20;99.90
20376;DHT22;10347;51.828;6.466;2023-12-14T04:25:17;8.10;99.90
20376;DHT22;10347;51.828;6.466;2023-12-14T04:27:43;8.10;99.90
20376;DHT22;10347;51.828;6.466;2023-12-14T04:30:08;8.10;99.90
20376;DHT22;10347;51.828;6.466;2023-12-14T04:32:36;8.10;99.90
20376;DHT22;10347;51.828;6.466;2023-12-14T04:35:02;8.10;99.90
20376;DHT22;10347;51.828;6.466;2023-12-14T04:37:28;8.00;99.90
20376;DHT22;10347;51.828;6.466;2023-12-14T04:39:55;8.00;99.90
20376;DHT22;10347;51.828;6.466;2023-12-14T04:42:21;8.00;99.90
20376;DHT22;10347;51.828;6.466;2023-12-14T04:44:46;8.00;99.90
20376;DHT22;10347;51.828;6.466;2023-12-14T04:47:12;8.00;99.90
20376;DHT22;10347;51.828;6.466;2023-12-14T04:49:37;8.00;99.90
20376;DHT22;10347;51.828;6.466;2023-12-14T04:52:03;8.00;99.90
20376;DHT22;10347;51.828;6.466;2023-12-14T04:54:28;8.00;99.90
20376;DHT22;10347;51.828;6.466;2023-12-14T04:56:54;8.00;99.90
20376;DHT22;10347;51.828;6.466;2023-12-14T04:59:19;8.00;99.90
20376;DHT22;10347;51.828;6.466;2023-12-14T05:01:45;8.00;99.90
20376;DHT22;10347;51.828;6.466;2023-12-14T05:04:10;8.00;99.90
20376;DHT22;10347;51.828;6.466;2023-12-14T05:06:38;8.00;99.90
20376;DHT22;10347;51.828;6.466;2023-12-14T05:09:03;8.00;99.90
20376;DHT22;10347;51.828;6.466;2023-12-14T05:11:30;8.00;99.90
20376;DHT22;10347;51.828;6.466;2023-12-14T05:13:55;8.00;99.90
20376;DHT22;10347;51.828;6.466;2023-12-14T05:16:21;8.00;99.90
20376;DHT22;10347;51.828;6.466;2023-12-14T05:18:46;8.00;99.90
20376;DHT22;10347;51.828;6.466;2023-12-14T05:21:20;8.00;99.90
20376;DHT22;10347;51.828;6.466;2023-12-14T05:23:46;8.00;99.90
20376;DHT22;10347;51.828;6.466;2023-12-14T05:26:12;8.00;99.90
20376;DHT22;10347;51.828;6.466;2023-12-14T05:28:37;7.90;99.90
20376;DHT22;10347;51.828;6.466;2023-12-14T05:31:03;8.00;99.90
20376;DHT22;10347;51.828;6.466;2023-12-14T05:33:29;8.00;99.90
20376;DHT22;10347;51.828;6.466;2023-12-14T05:35:56;8.00;99.90
20376;DHT22;10347;51.828;6.466;2023-12-14T05:38:22;8.00;99.90
20376;DHT22;10347;51.828;6.466;2023-12-14T05:40:47;8.00;99.90
20376;DHT22;10347;51.828;6.466;2023-12-14T05:43:13;8.00;99.90
20376;DHT22;10347;51.828;6.466;2023-12-14T05:45:38;7.90;99.90
20376;DHT22;10347;51.828;6.466;2023-12-14T05:48:04;8.00;99.90
20376;DHT22;10347;51.828;6.466;2023-12-14T05:50:31;8.00;99.90
20376;DHT22;10347;51.828;6.466;2023-12-14T05:52:56;8.00;99.90
20376;DHT22;10347;51.828;6.466;2023-12-14T05:55:22;8.00;99.90
20376;DHT22;10347;51.828;6.466;2023-12-14T05:57:51;8.00;99.90
20376;DHT22;10347;51.828;6.466;2023-12-14T06:00:17;7.90;99.90
20376;DHT22;10347;51.828;6.466;2023-12-14T06:02:43;7.90;99.90
20376;DHT22;10347;51.828;6.466;2023-12-14T06:05:09;8.00;99.90
20376;DHT22;10347;51.828;6.466;2023-12-14T06:07:34;7.90;99.90
20376;DHT22;10347;51.828;6.466;2023-12-14T06:10:00;7.90;99.90
20376;DHT22;10347;51.828;6.466;2023-12-14T06:12:26;8.00;99.90
20376;DHT22;10347;51.828;6.466;2023-12-14T06:14:52;7.90;99.90
20376;DHT22;10347;51.828;6.466;2023-12-14T06:17:17;7.90;99.90
20376;DHT22;10347;51.828;6.466;2023-12-14T06:19:43;7.90;99.90
20376;DHT22;10347;51.828;6.466;2023-12-14T06:22:09;7.90;99.90
20376;DHT22;10347;51.828;6.466;2023-12-14T06:24:34;7.90;99.90
20376;DHT22;10347;51.828;6.466;2023-12-14T06:27:00;7.90;99.90
20376;DHT22;10347;51.828;6.466;2023-12-14T06:29:25;7.90;99.90
20376;DHT22;10347;51.828;6.466;2023-12-14T06:31:51;7.90;99.90
20376;DHT22;10347;51.828;6.466;2023-12-14T06:34:16;7.90;99.90
20376;DHT22;10347;51.828;6.466;2023-12-14T06:36:45;7.90;99.90
20376;DHT22;10347;51.828;6.466;2023-12-14T06:39:11;7.90;99.90
20376;DHT22;10347;51.828;6.466;2023-12-14T06:41:37;8.00;99.90
20376;DHT22;10347;51.828;6.466;2023-12-14T06:44:03;7.90;99.90
20376;DHT22;10347;51.828;6.466;2023-12-14T06:46:29;8.00;99.90
20376;DHT22;10347;51.828;6.466;2023-12-14T06:48:54;7.90;99.90
20376;DHT22;10347;51.828;6.466;2023-12-14T06:51:21;8.00;99.90
20376;DHT22;10347;51.828;6.466;2023-12-14T06:53:46;8.00;99.90
20376;DHT22;10347;51.828;6.466;2023-12-14T06:56:12;8.00;99.90
20376;DHT22;10347;51.828;6.466;2023-12-14T06:58:42;8.00;99.90
20376;DHT22;10347;51.828;6.466;2023-12-14T07:01:12;8.00;99.90
20376;DHT22;10347;51.828;6.466;2023-12-14T07:03:42;8.00;99.90
20376;DHT22;10347;51.828;6.466;2023-12-14T07:06:16;8.00;99.90
20376;DHT22;10347;51.828;6.466;2023-12-14T07:08:42;8.00;99.90
20376;DHT22;10347;51.828;6.466;2023-12-14T07:11:08;8.00;99.90
20376;DHT22;10347;51.828;6.466;2023-12-14T07:13:34;7.90;99.90
20376;DHT22;10347;51.828;6.466;2023-12-14T07:16:05;7.90;99.90
20376;DHT22;10347;51.828;6.466;2023-12-14T07:18:31;7.90;99.90
20376;DHT22;10347;51.828;6.466;2023-12-14T07:20:57;8.00;99.90
20376;DHT22;10347;51.828;6.466;2023-12-14T07:23:22;7.90;99.90
20376;DHT22;10347;51.828;6.466;2023-12-14T07:25:48;7.90;99.90
20376;DHT22;10347;51.828;6.466;2023-12-14T07:28:13;7.90;99.90
20376;DHT22;10347;51.828;6.466;2023-12-14T07:30:39;7.90;99.90
20376;DHT22;10347;51.828;6.466;2023-12-14T07:33:04;7.90;99.90
20376;DHT22;10347;51.828;6.466;2023-12-14T07:35:30;7.80;99.90
20376;DHT22;10347;51.828;6.466;2023-12-14T07:37:55;7.80;99.90
20376;DHT22;10347;51.828;6.466;2023-12-14T07:40:21;7.90;99.90
20376;DHT22;10347;51.828;6.466;2023-12-14T07:42:46;8.00;99.90
20376;DHT22;10347;51.828;6.466;2023-12-14T07:45:12;8.00;99.90
20376;DHT22;10347;51.828;6.466;2023-12-14T07:47:37;8.00;99.90
20376;DHT22;10347;51.828;6.466;2023-12-14T07:50:03;7.90;99.90
20376;DHT22;10347;51.828;6.466;2023-12-14T07:52:29;7.80;99.90
20376;DHT22;10347;51.828;6.466;2023-12-14T07:54:54;7.80;99.90
20376;DHT22;10347;51.828;6.466;2023-12-14T07:57:20;7.80;99.90
20376;DHT22;10347;51.828;6.466;2023-12-14T07:59:45;7.80;99.90
20376;DHT22;10347;51.828;6.466;2023-12-14T08:02:11;7.70;99.90
20376;DHT22;10347;51.828;6.466;2023-12-14T08:04:37;7.60;99.90
20376;DHT22;10347;51.828;6.466;2023-12-14T08:07:02;7.70;99.90
20376;DHT22;10347;51.828;6.466;2023-12-14T08:09:28;7.70;99.90
20376;DHT22;10347;51.828;6.466;2023-12-14T08:11:54;7.70;99.90
20376;DHT22;10347;51.828;6.466;2023-12-14T08:14:19;7.70;99.90
20376;DHT22;10347;51.828;6.466;2023-12-14T08:16:45;7.80;99.90
20376;DHT22;10347;51.828;6.466;2023-12-14T08:19:10;7.80;99.90
20376;DHT22;10347;51.828;6.466;2023-12-14T08:21:36;7.80;99.90
20376;DHT22;10347;51.828;6.466;2023-12-14T08:24:01;7.80;99.90
20376;DHT22;10347;51.828;6.466;2023-12-14T08:26:27;7.80;99.90
20376;DHT22;10347;51.828;6.466;2023-12-14T08:28:53;7.70;99.90
20376;DHT22;10347;51.828;6.466;2023-12-14T08:31:18;7.80;99.90
20376;DHT22;10347;51.828;6.466;2023-12-14T08:33:44;7.80;99.90
20376;DHT22;10347;51.828;6.466;2023-12-14T08:36:09;7.80;99.90
20376;DHT22;10347;51.828;6.466;2023-12-14T08:38:35;7.80;99.90
20376;DHT22;10347;51.828;6.466;2023-12-14T08:41:00;7.80;99.90
20376;DHT22;10347;51.828;6.466;2023-12-14T08:43:26;7.80;99.90
20376;DHT22;10347;51.828;6.466;2023-12-14T08:45:52;7.80;99.90
20376;DHT22;10347;51.828;6.466;2023-12-14T08:48:18;7.80;99.90
20376;DHT22;10347;51.828;6.466;2023-12-14T08:50:43;7.80;99.90
20376;DHT22;10347;51.828;6.466;2023-12-14T08:53:09;7.80;99.90
20376;DHT22;10347;51.828;6.466;2023-12-14T08:55:34;7.80;99.90
20376;DHT22;10347;51.828;6.466;2023-12-14T08:58:00;7.70;99.90
20376;DHT22;10347;51.828;6.466;2023-12-14T09:00:26;7.70;99.90
20376;DHT22;10347;51.828;6.466;2023-12-14T09:02:51;7.70;99.90
20376;DHT22;10347;51.828;6.466;2023-12-14T09:05:18;7.60;99.90
20376;DHT22;10347;51.828;6.466;2023-12-14T09:07:46;7.60;99.90
20376;DHT22;10347;51.828;6.466;2023-12-14T09:10:12;7.60;99.90
20376;DHT22;10347;51.828;6.466;2023-12-14T09:12:37;7.60;99.90
20376;DHT22;10347;51.828;6.466;2023-12-14T09:15:04;7.60;99.90
20376;DHT22;10347;51.828;6.466;2023-12-14T09:17:29;7.70;99.90
20376;DHT22;10347;51.828;6.466;2023-12-14T09:19:59;7.60;99.90
20376;DHT22;10347;51.828;6.466;2023-12-14T09:22:25;7.70;99.90
20376;DHT22;10347;51.828;6.466;2023-12-14T09:24:50;7.70;99.90
20376;DHT22;10347;51.828;6.466;2023-12-14T09:27:16;7.60;99.90
20376;DHT22;10347;51.828;6.466;2023-12-14T09:29:42;7.70;99.90
20376;DHT22;10347;51.828;6.466;2023-12-14T09:32:08;7.60;99.90
20376;DHT22;10347;51.828;6.466;2023-12-14T09:34:34;7.60;99.90
20376;DHT22;10347;51.828;6.466;2023-12-14T09:36:59;7.60;99.90
20376;DHT22;10347;51.828;6.466;2023-12-14T09:39:25;7.60;99.90
20376;DHT22;10347;51.828;6.466;2023-12-14T09:41:51;7.70;99.90
20376;DHT22;10347;51.828;6.466;2023-12-14T09:44:16;7.70;99.90
20376;DHT22;10347;51.828;6.466;2023-12-14T09:46:43;7.70;99.90
20376;DHT22;10347;51.828;6.466;2023-12-14T09:49:15;7.70;99.90
20376;DHT22;10347;51.828;6.466;2023-12-14T09:51:41;7.70;99.90
20376;DHT22;10347;51.828;6.466;2023-12-14T09:54:06;7.70;99.90
20376;DHT22;10347;51.828;6.466;2023-12-14T09:56:32;7.70;99.90
20376;DHT22;10347;51.828;6.466;2023-12-14T09:58:57;7.70;99.90
20376;DHT22;10347;51.828;6.466;2023-12-14T10:01:26;7.70;99.90
20376;DHT22;10347;51.828;6.466;2023-12-14T10:04:09;7.60;99.90
20376;DHT22;10347;51.828;6.466;2023-12-14T10:06:35;7.70;99.90
20376;DHT22;10347;51.828;6.466;2023-12-14T10:09:01;7.70;99.90
20376;DHT22;10347;51.828;6.466;2023-12-14T10:11:26;7.70;99.90
20376;DHT22;10347;51.828;6.466;2023-12-14T10:13:52;7.70;99.90
20376;DHT22;10347;51.828;6.466;2023-12-14T10:16:31;7.70;99.90
20376;DHT22;10347;51.828;6.466;2023-12-14T10:18:57;7.70;99.90
20376;DHT22;10347;51.828;6.466;2023-12-14T10:21:27;7.70;99.90
20376;DHT22;10347;51.828;6.466;2023-12-14T10:23:56;7.70;99.90
20376;DHT22;10347;51.828;6.466;2023-12-14T10:26:23;7.70;99.90
20376;DHT22;10347;51.828;6.466;2023-12-14T10:28:50;7.60;99.90
20376;DHT22;10347;51.828;6.466;2023-12-14T10:31:17;7.70;99.90
20376;DHT22;10347;51.828;6.466;2023-12-14T10:33:43;7.70;99.90
20376;DHT22;10347;51.828;6.466;2023-12-14T10:36:09;7.70;99.90
20376;DHT22;10347;51.828;6.466;2023-12-14T10:38:37;7.70;99.90
20376;DHT22;10347;51.828;6.466;2023-12-14T10:41:04;7.70;99.90
20376;DHT22;10347;51.828;6.466;2023-12-14T10:43:30;7.70;99.90
20376;DHT22;10347;51.828;6.466;2023-12-14T10:45:59;7.60;99.90
20376;DHT22;10347;51.828;6.466;2023-12-14T10:48:24;7.60;99.90
20376;DHT22;10347;51.828;6.466;2023-12-14T10:50:51;7.60;99.90
20376;DHT22;10347;51.828;6.466;2023-12-14T10:53:19;7.60;99.90
20376;DHT22;10347;51.828;6.466;2023-12-14T10:55:45;7.60;99.90
20376;DHT22;10347;51.828;6.466;2023-12-14T10:58:11;7.60;99.90
20376;DHT22;10347;51.828;6.466;2023-12-14T11:00:38;7.60;99.90
20376;DHT22;10347;51.828;6.466;2023-12-14T11:03:04;7.60;99.90
20376;DHT22;10347;51.828;6.466;2023-12-14T11:05:33;7.60;99.90
20376;DHT22;10347;51.828;6.466;2023-12-14T11:08:03;7.60;99.90
20376;DHT22;10347;51.828;6.466;2023-12-14T11:10:53;7.60;99.90
20376;DHT22;10347;51.828;6.466;2023-12-14T11:13:23;7.60;99.90
20376;DHT22;10347;51.828;6.466;2023-12-14T11:15:51;7.60;99.90
20376;DHT22;10347;51.828;6.466;2023-12-14T11:18:23;7.70;99.90
20376;DHT22;10347;51.828;6.466;2023-12-14T11:21:02;7.70;99.90
20376;DHT22;10347;51.828;6.466;2023-12-14T11:23:37;7.70;99.90
20376;DHT22;10347;51.828;6.466;2023-12-14T11:26:09;7.70;99.90
20376;DHT22;10347;51.828;6.466;2023-12-14T11:28:37;7.70;99.90
20376;DHT22;10347;51.828;6.466;2023-12-14T11:31:03;7.70;99.90
20376;DHT22;10347;51.828;6.466;2023-12-14T11:33:33;7.70;99.90
20376;DHT22;10347;51.828;6.466;2023-12-14T11:36:01;7.60;99.90
20376;DHT22;10347;51.828;6.466;2023-12-14T11:38:27;7.60;99.90
20376;DHT22;10347;51.828;6.466;2023-12-14T11:40:52;7.60;99.90
20376;DHT22;10347;51.828;6.466;2023-12-14T11:43:18;7.60;99.90
20376;DHT22;10347;51.828;6.466;2023-12-14T11:45:46;7.60;99.90
20376;DHT22;10347;51.828;6.466;2023-12-14T11:48:12;7.60;99.90
20376;DHT22;10347;51.828;6.466;2023-12-14T11:50:42;7.60;99.90
20376;DHT22;10347;51.828;6.466;2023-12-14T11:53:09;7.60;99.90
20376;DHT22;10347;51.828;6.466;2023-12-14T11:55:36;7.70;99.90
20376;DHT22;10347;51.828;6.466;2023-12-14T11:58:03;7.70;99.90
20376;DHT22;10347;51.828;6.466;2023-12-14T12:00:30;7.70;99.90
20376;DHT22;10347;51.828;6.466;2023-12-14T12:05:43;7.70;99.90
20376;DHT22;10347;51.828;6.466;2023-12-14T12:08:10;7.70;99.90
20376;DHT22;10347;51.828;6.466;2023-12-14T12:10:39;7.70;99.90
20376;DHT22;10347;51.828;6.466;2023-12-14T12:13:12;7.70;99.90
20376;DHT22;10347;51.828;6.466;2023-12-14T12:15:38;7.60;99.90
20376;DHT22;10347;51.828;6.466;2023-12-14T12:18:11;7.60;99.90
20376;DHT22;10347;51.828;6.466;2023-12-14T12:20:37;7.60;99.90
20376;DHT22;10347;51.828;6.466;2023-12-14T12:23:03;7.70;99.90
20376;DHT22;10347;51.828;6.466;2023-12-14T12:25:29;7.70;99.90
20376;DHT22;10347;51.828;6.466;2023-12-14T12:27:56;7.70;99.90
20376;DHT22;10347;51.828;6.466;2023-12-14T12:30:22;7.70;99.90
20376;DHT22;10347;51.828;6.466;2023-12-14T12:32:49;7.70;99.90
20376;DHT22;10347;51.828;6.466;2023-12-14T12:35:16;7.70;99.90
20376;DHT22;10347;51.828;6.466;2023-12-14T12:37:41;7.70;99.90
20376;DHT22;10347;51.828;6.466;2023-12-14T12:40:08;7.70;99.90
20376;DHT22;10347;51.828;6.466;2023-12-14T12:42:33;7.70;99.90
20376;DHT22;10347;51.828;6.466;2023-12-14T12:44:59;7.70;99.90
20376;DHT22;10347;51.828;6.466;2023-12-14T12:47:26;7.70;99.90
20376;DHT22;10347;51.828;6.466;2023-12-14T12:49:51;7.70;99.90
20376;DHT22;10347;51.828;6.466;2023-12-14T12:52:17;7.60;99.90
20376;DHT22;10347;51.828;6.466;2023-12-14T12:54:42;7.60;99.90
20376;DHT22;10347;51.828;6.466;2023-12-14T12:57:08;7.60;99.90
20376;DHT22;10347;51.828;6.466;2023-12-14T12:59:33;7.70;99.90
20376;DHT22;10347;51.828;6.466;2023-12-14T13:01:59;7.70;99.90
20376;DHT22;10347;51.828;6.466;2023-12-14T13:04:24;7.60;99.90
20376;DHT22;10347;51.828;6.466;2023-12-14T13:06:51;7.70;99.90
20376;DHT22;10347;51.828;6.466;2023-12-14T13:09:17;7.60;99.90
20376;DHT22;10347;51.828;6.466;2023-12-14T13:11:45;7.60;99.90
20376;DHT22;10347;51.828;6.466;2023-12-14T13:14:10;7.70;99.90
20376;DHT22;10347;51.828;6.466;2023-12-14T13:16:37;7.60;99.90
20376;DHT22;10347;51.828;6.466;2023-12-14T13:19:03;7.60;99.90
20376;DHT22;10347;51.828;6.466;2023-12-14T13:21:30;7.50;99.90
20376;DHT22;10347;51.828;6.466;2023-12-14T13:23:55;7.60;99.90
20376;DHT22;10347;51.828;6.466;2023-12-14T13:26:24;7.60;99.90
20376;DHT22;10347;51.828;6.466;2023-12-14T13:28:51;7.70;99.90
20376;DHT22;10347;51.828;6.466;2023-12-14T13:31:17;7.60;99.90
20376;DHT22;10347;51.828;6.466;2023-12-14T13:33:42;7.60;99.90
20376;DHT22;10347;51.828;6.466;2023-12-14T13:36:08;7.60;99.90
20376;DHT22;10347;51.828;6.466;2023-12-14T13:38:34;7.60;99.90
20376;DHT22;10347;51.828;6.466;2023-12-14T13:41:02;7.60;99.90
20376;DHT22;10347;51.828;6.466;2023-12-14T13:43:28;7.50;99.90
20376;DHT22;10347;51.828;6.466;2023-12-14T13:45:54;7.50;99.90
20376;DHT22;10347;51.828;6.466;2023-12-14T13:48:26;7.50;99.90
20376;DHT22;10347;51.828;6.466;2023-12-14T13:50:53;7.50;99.90
20376;DHT22;10347;51.828;6.466;2023-12-14T13:53:19;7.50;99.90
20376;DHT22;10347;51.828;6.466;2023-12-14T13:55:45;7.50;99.90
20376;DHT22;10347;51.828;6.466;2023-12-14T13:58:11;7.50;99.90
20376;DHT22;10347;51.828;6.466;2023-12-14T14:00:37;7.50;99.90
20376;DHT22;10347;51.828;6.466;2023-12-14T14:03:03;7.50;99.90
20376;DHT22;10347;51.828;6.466;2023-12-14T14:05:29;7.60;99.90
20376;DHT22;10347;51.828;6.466;2023-12-14T14:07:56;7.50;99.90
20376;DHT22;10347;51.828;6.466;2023-12-14T14:10:21;7.50;99.90
20376;DHT22;10347;51.828;6.466;2023-12-14T14:12:47;7.50;99.90
20376;DHT22;10347;51.828;6.466;2023-12-14T14:15:13;7.60;99.90
20376;DHT22;10347;51.828;6.466;2023-12-14T14:17:39;7.60;99.90
20376;DHT22;10347;51.828;6.466;2023-12-14T14:20:05;7.60;99.90
20376;DHT22;10347;51.828;6.466;2023-12-14T14:22:32;7.60;99.90
20376;DHT22;10347;51.828;6.466;2023-12-14T14:24:57;7.50;99.90
20376;DHT22;10347;51.828;6.466;2023-12-14T14:27:23;7.50;99.90
20376;DHT22;10347;51.828;6.466;2023-12-14T14:29:49;7.50;99.90
20376;DHT22;10347;51.828;6.466;2023-12-14T14:32:15;7.50;99.90
20376;DHT22;10347;51.828;6.466;2023-12-14T14:34:42;7.60;99.90
20376;DHT22;10347;51.828;6.466;2023-12-14T14:37:08;7.60;99.90
20376;DHT22;10347;51.828;6.466;2023-12-14T14:39:33;7.70;99.90
20376;DHT22;10347;51.828;6.466;2023-12-14T14:41:59;7.70;99.90
20376;DHT22;10347;51.828;6.466;2023-12-14T14:44:25;7.70;99.90
20376;DHT22;10347;51.828;6.466;2023-12-14T14:46:51;7.70;99.90
20376;DHT22;10347;51.828;6.466;2023-12-14T14:49:17;7.60;99.90
20376;DHT22;10347;51.828;6.466;2023-12-14T14:51:43;7.60;99.90
20376;DHT22;10347;51.828;6.466;2023-12-14T14:54:08;7.60;99.90
20376;DHT22;10347;51.828;6.466;2023-12-14T14:56:34;7.70;99.90
20376;DHT22;10347;51.828;6.466;2023-12-14T14:58:59;7.60;99.90
20376;DHT22;10347;51.828;6.466;2023-12-14T15:01:25;7.70;99.90
20376;DHT22;10347;51.828;6.466;2023-12-14T15:03:50;7.70;99.90
20376;DHT22;10347;51.828;6.466;2023-12-14T15:06:16;7.80;99.90
20376;DHT22;10347;51.828;6.466;2023-12-14T15:08:41;7.80;99.90
20376;DHT22;10347;51.828;6.466;2023-12-14T15:11:07;7.80;99.90
20376;DHT22;10347;51.828;6.466;2023-12-14T15:13:35;7.80;99.90
20376;DHT22;10347;51.828;6.466;2023-12-14T15:16:00;7.80;99.90
20376;DHT22;10347;51.828;6.466;2023-12-14T15:18:26;7.80;99.90
20376;DHT22;10347;51.828;6.466;2023-12-14T15:20:52;7.80;99.90
20376;DHT22;10347;51.828;6.466;2023-12-14T15:23:18;7.70;99.90
20376;DHT22;10347;51.828;6.466;2023-12-14T15:25:44;7.80;99.90
20376;DHT22;10347;51.828;6.466;2023-12-14T15:28:10;7.80;99.90
20376;DHT22;10347;51.828;6.466;2023-12-14T15:30:35;7.80;99.90
20376;DHT22;10347;51.828;6.466;2023-12-14T15:33:01;7.80;99.90
20376;DHT22;10347;51.828;6.466;2023-12-14T15:35:26;7.80;99.90
20376;DHT22;10347;51.828;6.466;2023-12-14T15:37:52;7.80;99.90
20376;DHT22;10347;51.828;6.466;2023-12-14T15:40:18;7.80;99.90